Historyczne dane pomiarowe

Dodano dane terminowe – wersja testowa.

Dane z okresu 1951-2019

Wersja bazy: 1.34 [2019-03-16, lista zmian], aktualizacja planowana na 2019-04-15

Dane meteo z obszaru Polski uzyskane na podstawie danych udostępnionych przez Instytut Meteorologii i Gospodarki Wodnej – Państwowy Instytut Badawczy.

 

Wybierz Datę:    

       

TemperaturaWilgotnośćZachmurzenieWiatrCiśnienieWidzialnośćZjawiska
 Data    tng td wb rh cc ccl cl cm ch dir g1 g2 mslp ppp      
1999-07-16 00:00:00 14.0--- 11.2 12.483wxwx3wx--1015.0 992.0 0.1---wxw1
1999-07-16 01:00:00 14.0--- 10.4 12.079wxwxwx2wx--1015.0 992.0----wx
1999-07-16 02:00:00 14.0--- 10.3 11.978wxwxwx2wx--1015.0 992.0----wx
1999-07-16 03:00:00 12.2--- 10.4 11.289wxwxwx1wx--1015.3 992.2----wx
1999-07-16 04:00:00 13.2--- 10.7 11.885wxwxwx1wx--1015.5 992.5----wx
1999-07-16 05:00:00 13.0--- 11.2 12.089wxwxwx1wx--1016.2 993.1----wx
1999-07-16 06:00:00 13.9--- 11.1 12.383wxwxwx2wx--1016.4 993.4 0.0---wx
1999-07-16 07:00:00 15.2--- 11.0 12.876wxwxwx1wx--1016.7 993.8----wx
1999-07-16 08:00:00 16.7--- 11.0 13.469wxwxwxwx2wx--1016.9 994.1----wx
1999-07-16 09:00:00 18.3--- 10.3 13.759wxwxwx3wx--1016.9 994.2----wx
1999-07-16 10:00:00 18.3--- 9.9 13.558wxwxwx3wx--1017.2 994.5----wx
1999-07-16 11:00:00 19.9--- 8.9 13.749wxwxwx3wx--1017.1 994.6----wx
1999-07-16 12:00:00 19.3--- 9.2 13.652wxwxwxwx2wx--1017.5 994.9 0.0---wx
1999-07-16 13:00:00 20.7--- 7.2 13.342wxwxwxwx2wx--1017.1 994.6----wx
1999-07-16 14:00:00 20.0--- 9.5 14.051wxwxwxwx4wx--1017.5 995.0----wx
1999-07-16 15:00:00 20.5--- 9.5 14.249wxwxwxwx2wx--1017.4 994.9----wx
1999-07-16 16:00:00 20.4--- 9.3 14.149wxwxwxwxwx1wx--1017.4 994.9----wx
1999-07-16 17:00:00 20.5--- 10.7 14.854wxwxwxwxwx2wx--1017.8 995.3----wx
1999-07-16 18:00:00 19.9--- 9.6 14.051wxwxwxwxwx1wx--1018.1 995.5 0.0---wx
1999-07-16 19:00:00 19.2--- 10.1 14.056wxwxwxwx1wx--1018.6 996.0----wx
1999-07-16 20:00:00 17.8--- 10.3 13.561wxwxwx1wx--1019.3 996.5----wx
1999-07-16 21:00:00 17.5--- 10.1 13.362wxwxwx2wx--1019.5 996.7----wx
1999-07-16 22:00:00 17.3--- 9.9 13.162wxwxwx2wx--1019.7 996.9----wx
1999-07-16 23:00:00 16.8--- 9.9 12.964wxwxwx2wx--1020.0 997.2----wx

 

Źródłem pochodzenia danych jest Instytut Meteorologii i Gospodarki Wodnej – Państwowy Instytut Badawczy. Dane Instytutu Meteorologii i Gospodarki Wodnej – Państwowego Instytutu Badawczego zostały przetworzone.

Dane źródłowe można odnaleźć na stronie https://dane.imgw.pl